sensor_id;sensor_type;location;lat;lon;timestamp;P1;durP1;ratioP1;P2;durP2;ratioP2
33579;SDS011;19909;43.644;-79.438;2022-07-23T00:01:04;0.40;;;0.30;;
33579;SDS011;19909;43.644;-79.438;2022-07-23T00:03:30;0.22;;;0.20;;
33579;SDS011;19909;43.644;-79.438;2022-07-23T00:05:56;0.32;;;0.32;;
33579;SDS011;19909;43.644;-79.438;2022-07-23T00:08:22;0.98;;;0.30;;
33579;SDS011;19909;43.644;-79.438;2022-07-23T00:10:48;0.35;;;0.30;;
33579;SDS011;19909;43.644;-79.438;2022-07-23T00:13:15;0.43;;;0.30;;
33579;SDS011;19909;43.644;-79.438;2022-07-23T00:15:41;0.10;;;0.10;;
33579;SDS011;19909;43.644;-79.438;2022-07-23T00:18:07;0.20;;;0.20;;
33579;SDS011;19909;43.644;-79.438;2022-07-23T00:20:33;0.20;;;0.20;;
33579;SDS011;19909;43.644;-79.438;2022-07-23T00:22:59;0.20;;;0.20;;
33579;SDS011;19909;43.644;-79.438;2022-07-23T00:25:26;0.20;;;0.20;;
33579;SDS011;19909;43.644;-79.438;2022-07-23T00:27:53;0.20;;;0.20;;
33579;SDS011;19909;43.644;-79.438;2022-07-23T00:30:19;0.20;;;0.20;;
33579;SDS011;19909;43.644;-79.438;2022-07-23T00:32:51;0.10;;;0.10;;
33579;SDS011;19909;43.644;-79.438;2022-07-23T00:35:20;0.20;;;0.20;;
33579;SDS011;19909;43.644;-79.438;2022-07-23T00:37:47;0.20;;;0.20;;
33579;SDS011;19909;43.644;-79.438;2022-07-23T00:40:13;0.68;;;0.20;;
33579;SDS011;19909;43.644;-79.438;2022-07-23T00:42:40;0.20;;;0.20;;
33579;SDS011;19909;43.644;-79.438;2022-07-23T00:45:06;0.30;;;0.20;;
33579;SDS011;19909;43.644;-79.438;2022-07-23T00:47:33;0.22;;;0.20;;
33579;SDS011;19909;43.644;-79.438;2022-07-23T00:49:59;0.38;;;0.17;;
33579;SDS011;19909;43.644;-79.438;2022-07-23T00:52:26;1.80;;;0.40;;
33579;SDS011;19909;43.644;-79.438;2022-07-23T00:54:52;0.68;;;0.30;;
33579;SDS011;19909;43.644;-79.438;2022-07-23T00:57:21;0.50;;;0.30;;
33579;SDS011;19909;43.644;-79.438;2022-07-23T00:59:47;0.10;;;0.10;;
33579;SDS011;19909;43.644;-79.438;2022-07-23T01:02:13;1.90;;;0.30;;
33579;SDS011;19909;43.644;-79.438;2022-07-23T01:04:40;0.43;;;0.20;;
33579;SDS011;19909;43.644;-79.438;2022-07-23T01:07:06;0.57;;;0.38;;
33579;SDS011;19909;43.644;-79.438;2022-07-23T01:09:32;0.30;;;0.20;;
33579;SDS011;19909;43.644;-79.438;2022-07-23T01:11:59;0.82;;;0.35;;
33579;SDS011;19909;43.644;-79.438;2022-07-23T01:14:25;0.22;;;0.22;;
33579;SDS011;19909;43.644;-79.438;2022-07-23T01:16:52;0.10;;;0.10;;
33579;SDS011;19909;43.644;-79.438;2022-07-23T01:19:18;0.38;;;0.22;;
33579;SDS011;19909;43.644;-79.438;2022-07-23T01:21:45;0.35;;;0.35;;
33579;SDS011;19909;43.644;-79.438;2022-07-23T01:24:14;0.30;;;0.20;;
33579;SDS011;19909;43.644;-79.438;2022-07-23T01:26:42;0.85;;;0.20;;
33579;SDS011;19909;43.644;-79.438;2022-07-23T01:29:09;0.40;;;0.30;;
33579;SDS011;19909;43.644;-79.438;2022-07-23T01:31:36;8.45;;;1.05;;
33579;SDS011;19909;43.644;-79.438;2022-07-23T01:34:02;2.60;;;0.40;;
33579;SDS011;19909;43.644;-79.438;2022-07-23T01:36:29;1.00;;;0.63;;
33579;SDS011;19909;43.644;-79.438;2022-07-23T01:38:55;0.30;;;0.30;;
33579;SDS011;19909;43.644;-79.438;2022-07-23T01:41:21;0.50;;;0.30;;
33579;SDS011;19909;43.644;-79.438;2022-07-23T01:43:48;0.40;;;0.30;;
33579;SDS011;19909;43.644;-79.438;2022-07-23T01:46:14;0.45;;;0.30;;
33579;SDS011;19909;43.644;-79.438;2022-07-23T01:48:40;0.45;;;0.20;;
33579;SDS011;19909;43.644;-79.438;2022-07-23T01:51:07;0.20;;;0.20;;
33579;SDS011;19909;43.644;-79.438;2022-07-23T01:53:33;0.15;;;0.13;;
33579;SDS011;19909;43.644;-79.438;2022-07-23T01:56:00;0.50;;;0.38;;
33579;SDS011;19909;43.644;-79.438;2022-07-23T01:58:27;0.50;;;0.30;;
33579;SDS011;19909;43.644;-79.438;2022-07-23T02:00:53;0.30;;;0.20;;
33579;SDS011;19909;43.644;-79.438;2022-07-23T02:03:20;0.20;;;0.20;;
33579;SDS011;19909;43.644;-79.438;2022-07-23T02:05:47;0.25;;;0.20;;
33579;SDS011;19909;43.644;-79.438;2022-07-23T02:08:14;0.43;;;0.30;;
33579;SDS011;19909;43.644;-79.438;2022-07-23T02:10:40;0.20;;;0.20;;
33579;SDS011;19909;43.644;-79.438;2022-07-23T02:13:06;0.20;;;0.20;;
33579;SDS011;19909;43.644;-79.438;2022-07-23T02:15:33;0.45;;;0.20;;
33579;SDS011;19909;43.644;-79.438;2022-07-23T02:17:59;0.43;;;0.20;;
33579;SDS011;19909;43.644;-79.438;2022-07-23T02:20:25;0.20;;;0.20;;
33579;SDS011;19909;43.644;-79.438;2022-07-23T02:22:51;0.30;;;0.20;;
33579;SDS011;19909;43.644;-79.438;2022-07-23T02:25:18;0.20;;;0.20;;
33579;SDS011;19909;43.644;-79.438;2022-07-23T02:27:45;0.17;;;0.10;;
33579;SDS011;19909;43.644;-79.438;2022-07-23T02:30:11;0.10;;;0.10;;
33579;SDS011;19909;43.644;-79.438;2022-07-23T02:32:37;0.20;;;0.20;;
33579;SDS011;19909;43.644;-79.438;2022-07-23T02:35:04;0.20;;;0.20;;
33579;SDS011;19909;43.644;-79.438;2022-07-23T02:37:32;0.30;;;0.20;;
33579;SDS011;19909;43.644;-79.438;2022-07-23T02:39:58;0.22;;;0.22;;
33579;SDS011;19909;43.644;-79.438;2022-07-23T02:42:24;0.28;;;0.20;;
33579;SDS011;19909;43.644;-79.438;2022-07-23T02:44:51;0.55;;;0.25;;
33579;SDS011;19909;43.644;-79.438;2022-07-23T02:47:17;0.28;;;0.20;;
33579;SDS011;19909;43.644;-79.438;2022-07-23T02:49:43;0.22;;;0.20;;
33579;SDS011;19909;43.644;-79.438;2022-07-23T02:52:10;0.40;;;0.40;;
33579;SDS011;19909;43.644;-79.438;2022-07-23T02:54:37;0.60;;;0.45;;
33579;SDS011;19909;43.644;-79.438;2022-07-23T02:57:03;1.30;;;0.30;;
33579;SDS011;19909;43.644;-79.438;2022-07-23T02:59:30;0.45;;;0.40;;
33579;SDS011;19909;43.644;-79.438;2022-07-23T03:01:56;0.47;;;0.30;;
33579;SDS011;19909;43.644;-79.438;2022-07-23T03:04:22;0.65;;;0.50;;
33579;SDS011;19909;43.644;-79.438;2022-07-23T03:06:48;0.60;;;0.43;;
33579;SDS011;19909;43.644;-79.438;2022-07-23T03:09:15;0.40;;;0.32;;
33579;SDS011;19909;43.644;-79.438;2022-07-23T03:11:41;0.52;;;0.40;;
33579;SDS011;19909;43.644;-79.438;2022-07-23T03:14:07;0.57;;;0.40;;
33579;SDS011;19909;43.644;-79.438;2022-07-23T03:16:33;0.30;;;0.22;;
33579;SDS011;19909;43.644;-79.438;2022-07-23T03:18:59;0.30;;;0.30;;
33579;SDS011;19909;43.644;-79.438;2022-07-23T03:21:25;0.30;;;0.30;;
33579;SDS011;19909;43.644;-79.438;2022-07-23T03:23:52;0.20;;;0.20;;
33579;SDS011;19909;43.644;-79.438;2022-07-23T03:26:18;0.50;;;0.45;;
33579;SDS011;19909;43.644;-79.438;2022-07-23T03:28:44;0.35;;;0.30;;
33579;SDS011;19909;43.644;-79.438;2022-07-23T03:31:10;0.47;;;0.40;;
33579;SDS011;19909;43.644;-79.438;2022-07-23T03:33:36;0.35;;;0.20;;
33579;SDS011;19909;43.644;-79.438;2022-07-23T03:36:03;0.40;;;0.30;;
33579;SDS011;19909;43.644;-79.438;2022-07-23T03:38:29;0.45;;;0.28;;
33579;SDS011;19909;43.644;-79.438;2022-07-23T03:40:55;0.52;;;0.47;;
33579;SDS011;19909;43.644;-79.438;2022-07-23T03:43:21;0.90;;;0.40;;
33579;SDS011;19909;43.644;-79.438;2022-07-23T03:45:50;0.30;;;0.30;;
33579;SDS011;19909;43.644;-79.438;2022-07-23T03:48:17;0.38;;;0.30;;
33579;SDS011;19909;43.644;-79.438;2022-07-23T03:50:43;0.50;;;0.40;;
33579;SDS011;19909;43.644;-79.438;2022-07-23T03:53:09;0.40;;;0.35;;
33579;SDS011;19909;43.644;-79.438;2022-07-23T03:55:35;0.38;;;0.30;;
33579;SDS011;19909;43.644;-79.438;2022-07-23T03:58:01;0.40;;;0.40;;
33579;SDS011;19909;43.644;-79.438;2022-07-23T04:00:28;0.38;;;0.38;;
33579;SDS011;19909;43.644;-79.438;2022-07-23T04:02:56;0.45;;;0.45;;
33579;SDS011;19909;43.644;-79.438;2022-07-23T04:07:52;0.32;;;0.32;;
33579;SDS011;19909;43.644;-79.438;2022-07-23T04:10:18;0.52;;;0.40;;
33579;SDS011;19909;43.644;-79.438;2022-07-23T04:12:47;0.40;;;0.40;;
33579;SDS011;19909;43.644;-79.438;2022-07-23T04:15:14;0.38;;;0.38;;
33579;SDS011;19909;43.644;-79.438;2022-07-23T04:17:40;0.30;;;0.30;;
33579;SDS011;19909;43.644;-79.438;2022-07-23T04:20:06;0.50;;;0.40;;
33579;SDS011;19909;43.644;-79.438;2022-07-23T04:22:33;0.32;;;0.25;;
33579;SDS011;19909;43.644;-79.438;2022-07-23T04:24:59;0.30;;;0.30;;
33579;SDS011;19909;43.644;-79.438;2022-07-23T04:27:25;1.27;;;0.50;;
33579;SDS011;19909;43.644;-79.438;2022-07-23T04:29:51;0.47;;;0.47;;
33579;SDS011;19909;43.644;-79.438;2022-07-23T04:32:18;0.77;;;0.63;;
33579;SDS011;19909;43.644;-79.438;2022-07-23T04:34:44;1.35;;;0.52;;
33579;SDS011;19909;43.644;-79.438;2022-07-23T04:37:10;4.30;;;3.55;;
33579;SDS011;19909;43.644;-79.438;2022-07-23T04:39:36;10.07;;;7.13;;
33579;SDS011;19909;43.644;-79.438;2022-07-23T04:42:08;11.35;;;7.63;;
33579;SDS011;19909;43.644;-79.438;2022-07-23T04:44:34;13.10;;;9.05;;
33579;SDS011;19909;43.644;-79.438;2022-07-23T04:47:00;11.32;;;7.68;;
33579;SDS011;19909;43.644;-79.438;2022-07-23T04:49:26;10.30;;;6.97;;
33579;SDS011;19909;43.644;-79.438;2022-07-23T04:51:52;10.93;;;7.57;;
33579;SDS011;19909;43.644;-79.438;2022-07-23T04:54:18;10.13;;;6.68;;
33579;SDS011;19909;43.644;-79.438;2022-07-23T04:56:45;10.00;;;7.03;;
33579;SDS011;19909;43.644;-79.438;2022-07-23T04:59:11;8.77;;;5.82;;
33579;SDS011;19909;43.644;-79.438;2022-07-23T05:01:37;6.88;;;5.28;;
33579;SDS011;19909;43.644;-79.438;2022-07-23T05:04:04;8.45;;;5.50;;
33579;SDS011;19909;43.644;-79.438;2022-07-23T05:06:30;8.10;;;5.05;;
33579;SDS011;19909;43.644;-79.438;2022-07-23T05:08:56;7.05;;;4.47;;
33579;SDS011;19909;43.644;-79.438;2022-07-23T05:11:22;6.10;;;4.45;;
33579;SDS011;19909;43.644;-79.438;2022-07-23T05:13:48;5.57;;;4.35;;
33579;SDS011;19909;43.644;-79.438;2022-07-23T05:16:15;5.53;;;3.53;;
33579;SDS011;19909;43.644;-79.438;2022-07-23T05:18:41;5.07;;;3.72;;
33579;SDS011;19909;43.644;-79.438;2022-07-23T05:21:09;5.70;;;3.88;;
33579;SDS011;19909;43.644;-79.438;2022-07-23T05:23:36;4.75;;;3.47;;
33579;SDS011;19909;43.644;-79.438;2022-07-23T05:26:02;3.70;;;2.85;;
33579;SDS011;19909;43.644;-79.438;2022-07-23T05:28:28;3.30;;;2.72;;
33579;SDS011;19909;43.644;-79.438;2022-07-23T05:30:55;4.45;;;2.88;;
33579;SDS011;19909;43.644;-79.438;2022-07-23T05:33:21;5.63;;;3.63;;
33579;SDS011;19909;43.644;-79.438;2022-07-23T05:35:47;3.55;;;2.80;;
33579;SDS011;19909;43.644;-79.438;2022-07-23T05:38:13;3.58;;;2.90;;
33579;SDS011;19909;43.644;-79.438;2022-07-23T05:40:39;2.67;;;2.17;;
33579;SDS011;19909;43.644;-79.438;2022-07-23T05:43:05;2.80;;;1.92;;
33579;SDS011;19909;43.644;-79.438;2022-07-23T05:45:31;2.45;;;1.90;;
33579;SDS011;19909;43.644;-79.438;2022-07-23T05:47:58;2.35;;;1.77;;
33579;SDS011;19909;43.644;-79.438;2022-07-23T05:50:24;2.72;;;2.10;;
33579;SDS011;19909;43.644;-79.438;2022-07-23T05:52:52;2.35;;;1.40;;
33579;SDS011;19909;43.644;-79.438;2022-07-23T05:55:18;2.00;;;1.67;;
33579;SDS011;19909;43.644;-79.438;2022-07-23T05:57:45;3.25;;;1.90;;
33579;SDS011;19909;43.644;-79.438;2022-07-23T06:00:11;2.15;;;1.67;;
33579;SDS011;19909;43.644;-79.438;2022-07-23T06:02:38;2.10;;;1.50;;
33579;SDS011;19909;43.644;-79.438;2022-07-23T06:05:05;1.42;;;1.20;;
33579;SDS011;19909;43.644;-79.438;2022-07-23T06:07:33;1.55;;;1.42;;
33579;SDS011;19909;43.644;-79.438;2022-07-23T06:09:59;1.60;;;1.45;;
33579;SDS011;19909;43.644;-79.438;2022-07-23T06:12:25;1.55;;;1.33;;
33579;SDS011;19909;43.644;-79.438;2022-07-23T06:14:51;2.90;;;1.92;;
33579;SDS011;19909;43.644;-79.438;2022-07-23T06:17:18;1.50;;;1.40;;
33579;SDS011;19909;43.644;-79.438;2022-07-23T06:19:44;1.20;;;1.10;;
33579;SDS011;19909;43.644;-79.438;2022-07-23T06:22:10;1.70;;;1.40;;
33579;SDS011;19909;43.644;-79.438;2022-07-23T06:24:37;1.73;;;1.25;;
33579;SDS011;19909;43.644;-79.438;2022-07-23T06:27:03;1.73;;;1.05;;
33579;SDS011;19909;43.644;-79.438;2022-07-23T06:29:29;1.27;;;1.17;;
33579;SDS011;19909;43.644;-79.438;2022-07-23T06:31:55;1.17;;;1.00;;
33579;SDS011;19909;43.644;-79.438;2022-07-23T06:34:22;1.30;;;1.10;;
33579;SDS011;19909;43.644;-79.438;2022-07-23T06:36:48;1.88;;;1.30;;
33579;SDS011;19909;43.644;-79.438;2022-07-23T06:39:14;1.00;;;0.90;;
33579;SDS011;19909;43.644;-79.438;2022-07-23T06:41:40;1.38;;;1.20;;
33579;SDS011;19909;43.644;-79.438;2022-07-23T06:44:07;1.42;;;1.33;;
33579;SDS011;19909;43.644;-79.438;2022-07-23T06:46:33;0.80;;;0.80;;
33579;SDS011;19909;43.644;-79.438;2022-07-23T06:48:59;1.10;;;0.98;;
33579;SDS011;19909;43.644;-79.438;2022-07-23T06:51:25;1.30;;;1.00;;
33579;SDS011;19909;43.644;-79.438;2022-07-23T06:53:51;2.17;;;1.23;;
33579;SDS011;19909;43.644;-79.438;2022-07-23T06:56:17;0.88;;;0.80;;
33579;SDS011;19909;43.644;-79.438;2022-07-23T06:58:45;1.05;;;0.85;;
33579;SDS011;19909;43.644;-79.438;2022-07-23T07:01:11;0.77;;;0.63;;
33579;SDS011;19909;43.644;-79.438;2022-07-23T07:03:37;0.70;;;0.70;;
33579;SDS011;19909;43.644;-79.438;2022-07-23T07:06:03;0.77;;;0.70;;
33579;SDS011;19909;43.644;-79.438;2022-07-23T07:08:29;1.00;;;0.90;;
33579;SDS011;19909;43.644;-79.438;2022-07-23T07:10:56;1.23;;;0.90;;
33579;SDS011;19909;43.644;-79.438;2022-07-23T07:13:22;1.65;;;0.95;;
33579;SDS011;19909;43.644;-79.438;2022-07-23T07:15:48;0.95;;;0.70;;
33579;SDS011;19909;43.644;-79.438;2022-07-23T07:18:14;0.60;;;0.60;;
33579;SDS011;19909;43.644;-79.438;2022-07-23T07:20:40;1.55;;;1.00;;
33579;SDS011;19909;43.644;-79.438;2022-07-23T07:23:06;0.85;;;0.77;;
33579;SDS011;19909;43.644;-79.438;2022-07-23T07:25:33;0.70;;;0.70;;
33579;SDS011;19909;43.644;-79.438;2022-07-23T07:27:59;0.80;;;0.60;;
33579;SDS011;19909;43.644;-79.438;2022-07-23T07:30:26;1.00;;;0.80;;
33579;SDS011;19909;43.644;-79.438;2022-07-23T07:32:52;0.98;;;0.60;;
33579;SDS011;19909;43.644;-79.438;2022-07-23T07:35:18;0.82;;;0.80;;
33579;SDS011;19909;43.644;-79.438;2022-07-23T07:37:45;0.85;;;0.73;;
33579;SDS011;19909;43.644;-79.438;2022-07-23T07:40:11;1.13;;;0.77;;
33579;SDS011;19909;43.644;-79.438;2022-07-23T07:42:47;0.70;;;0.70;;
33579;SDS011;19909;43.644;-79.438;2022-07-23T07:45:16;1.10;;;0.80;;
33579;SDS011;19909;43.644;-79.438;2022-07-23T07:47:42;0.88;;;0.75;;
33579;SDS011;19909;43.644;-79.438;2022-07-23T07:50:09;1.00;;;0.82;;
33579;SDS011;19909;43.644;-79.438;2022-07-23T07:52:36;0.98;;;0.80;;
33579;SDS011;19909;43.644;-79.438;2022-07-23T07:55:06;1.17;;;0.77;;
33579;SDS011;19909;43.644;-79.438;2022-07-23T07:57:34;0.68;;;0.68;;
33579;SDS011;19909;43.644;-79.438;2022-07-23T08:00:01;0.68;;;0.52;;
33579;SDS011;19909;43.644;-79.438;2022-07-23T08:02:27;0.80;;;0.70;;
33579;SDS011;19909;43.644;-79.438;2022-07-23T08:04:53;1.13;;;0.80;;
33579;SDS011;19909;43.644;-79.438;2022-07-23T08:07:22;0.50;;;0.50;;
33579;SDS011;19909;43.644;-79.438;2022-07-23T08:09:48;0.55;;;0.55;;
33579;SDS011;19909;43.644;-79.438;2022-07-23T08:12:14;0.60;;;0.57;;
33579;SDS011;19909;43.644;-79.438;2022-07-23T08:14:40;0.95;;;0.82;;
33579;SDS011;19909;43.644;-79.438;2022-07-23T08:17:07;0.90;;;0.47;;
33579;SDS011;19909;43.644;-79.438;2022-07-23T08:19:33;0.77;;;0.65;;
33579;SDS011;19909;43.644;-79.438;2022-07-23T08:21:59;0.90;;;0.60;;
33579;SDS011;19909;43.644;-79.438;2022-07-23T08:24:25;0.63;;;0.50;;
33579;SDS011;19909;43.644;-79.438;2022-07-23T08:26:51;0.80;;;0.50;;
33579;SDS011;19909;43.644;-79.438;2022-07-23T08:29:18;0.52;;;0.52;;
33579;SDS011;19909;43.644;-79.438;2022-07-23T08:31:44;0.43;;;0.43;;
33579;SDS011;19909;43.644;-79.438;2022-07-23T08:34:10;0.40;;;0.40;;
33579;SDS011;19909;43.644;-79.438;2022-07-23T08:36:36;0.47;;;0.45;;
33579;SDS011;19909;43.644;-79.438;2022-07-23T08:39:03;1.33;;;0.73;;
33579;SDS011;19909;43.644;-79.438;2022-07-23T08:41:29;0.70;;;0.55;;
33579;SDS011;19909;43.644;-79.438;2022-07-23T08:43:55;0.80;;;0.50;;
33579;SDS011;19909;43.644;-79.438;2022-07-23T08:46:22;0.50;;;0.50;;
33579;SDS011;19909;43.644;-79.438;2022-07-23T08:48:49;0.70;;;0.60;;
33579;SDS011;19909;43.644;-79.438;2022-07-23T08:51:16;0.85;;;0.57;;
33579;SDS011;19909;43.644;-79.438;2022-07-23T08:53:43;1.23;;;0.80;;
33579;SDS011;19909;43.644;-79.438;2022-07-23T08:56:10;1.10;;;0.90;;
33579;SDS011;19909;43.644;-79.438;2022-07-23T08:58:37;1.20;;;0.60;;
33579;SDS011;19909;43.644;-79.438;2022-07-23T09:01:03;0.70;;;0.57;;
33579;SDS011;19909;43.644;-79.438;2022-07-23T09:03:30;0.57;;;0.45;;
33579;SDS011;19909;43.644;-79.438;2022-07-23T09:05:58;0.65;;;0.50;;
33579;SDS011;19909;43.644;-79.438;2022-07-23T09:08:36;0.88;;;0.38;;
33579;SDS011;19909;43.644;-79.438;2022-07-23T09:11:07;0.90;;;0.63;;
33579;SDS011;19909;43.644;-79.438;2022-07-23T09:16:14;0.65;;;0.43;;
33579;SDS011;19909;43.644;-79.438;2022-07-23T09:18:45;0.63;;;0.43;;
33579;SDS011;19909;43.644;-79.438;2022-07-23T09:21:23;0.47;;;0.40;;
33579;SDS011;19909;43.644;-79.438;2022-07-23T09:23:52;0.60;;;0.40;;
33579;SDS011;19909;43.644;-79.438;2022-07-23T09:26:26;0.73;;;0.40;;
33579;SDS011;19909;43.644;-79.438;2022-07-23T09:32:13;0.60;;;0.50;;
33579;SDS011;19909;43.644;-79.438;2022-07-23T09:34:33;0.50;;;0.50;;
33579;SDS011;19909;43.644;-79.438;2022-07-23T09:37:37;0.47;;;0.45;;
33579;SDS011;19909;43.644;-79.438;2022-07-23T09:40:03;0.50;;;0.50;;
33579;SDS011;19909;43.644;-79.438;2022-07-23T09:42:34;0.50;;;0.50;;
33579;SDS011;19909;43.644;-79.438;2022-07-23T09:45:00;0.75;;;0.60;;
33579;SDS011;19909;43.644;-79.438;2022-07-23T09:47:30;0.52;;;0.50;;
33579;SDS011;19909;43.644;-79.438;2022-07-23T09:50:03;0.80;;;0.55;;
33579;SDS011;19909;43.644;-79.438;2022-07-23T09:52:43;0.68;;;0.40;;
33579;SDS011;19909;43.644;-79.438;2022-07-23T09:55:12;0.70;;;0.60;;
33579;SDS011;19909;43.644;-79.438;2022-07-23T09:57:42;0.43;;;0.40;;
33579;SDS011;19909;43.644;-79.438;2022-07-23T10:00:21;1.05;;;0.60;;
33579;SDS011;19909;43.644;-79.438;2022-07-23T10:02:49;0.90;;;0.60;;
33579;SDS011;19909;43.644;-79.438;2022-07-23T10:05:16;0.60;;;0.60;;
33579;SDS011;19909;43.644;-79.438;2022-07-23T10:07:44;0.35;;;0.35;;
33579;SDS011;19909;43.644;-79.438;2022-07-23T10:10:11;0.40;;;0.40;;
33579;SDS011;19909;43.644;-79.438;2022-07-23T10:12:39;0.50;;;0.50;;
33579;SDS011;19909;43.644;-79.438;2022-07-23T10:15:24;0.50;;;0.40;;
33579;SDS011;19909;43.644;-79.438;2022-07-23T10:17:51;0.30;;;0.30;;
33579;SDS011;19909;43.644;-79.438;2022-07-23T10:20:17;0.38;;;0.38;;
33579;SDS011;19909;43.644;-79.438;2022-07-23T10:23:20;0.98;;;0.30;;
33579;SDS011;19909;43.644;-79.438;2022-07-23T10:25:44;0.70;;;0.30;;
33579;SDS011;19909;43.644;-79.438;2022-07-23T10:31:28;0.60;;;0.45;;
33579;SDS011;19909;43.644;-79.438;2022-07-23T10:36:49;1.23;;;0.50;;
33579;SDS011;19909;43.644;-79.438;2022-07-23T10:39:30;0.50;;;0.40;;
33579;SDS011;19909;43.644;-79.438;2022-07-23T10:44:58;0.63;;;0.30;;
33579;SDS011;19909;43.644;-79.438;2022-07-23T10:47:28;0.20;;;0.20;;
33579;SDS011;19909;43.644;-79.438;2022-07-23T10:50:23;0.55;;;0.40;;
33579;SDS011;19909;43.644;-79.438;2022-07-23T10:53:08;2.15;;;0.32;;
33579;SDS011;19909;43.644;-79.438;2022-07-23T10:58:01;0.50;;;0.40;;
33579;SDS011;19909;43.644;-79.438;2022-07-23T11:00:29;0.40;;;0.30;;
33579;SDS011;19909;43.644;-79.438;2022-07-23T11:03:27;0.30;;;0.30;;
33579;SDS011;19909;43.644;-79.438;2022-07-23T11:06:01;0.63;;;0.40;;
33579;SDS011;19909;43.644;-79.438;2022-07-23T11:08:28;0.73;;;0.40;;
33579;SDS011;19909;43.644;-79.438;2022-07-23T11:10:55;0.50;;;0.30;;
33579;SDS011;19909;43.644;-79.438;2022-07-23T11:13:39;0.50;;;0.30;;
33579;SDS011;19909;43.644;-79.438;2022-07-23T11:16:07;0.47;;;0.40;;
33579;SDS011;19909;43.644;-79.438;2022-07-23T11:31:54;0.50;;;0.40;;
33579;SDS011;19909;43.644;-79.438;2022-07-23T11:37:02;0.30;;;0.30;;
33579;SDS011;19909;43.644;-79.438;2022-07-23T11:39:30;0.50;;;0.30;;
33579;SDS011;19909;43.644;-79.438;2022-07-23T11:41:58;0.38;;;0.30;;
33579;SDS011;19909;43.644;-79.438;2022-07-23T11:44:29;0.30;;;0.30;;
33579;SDS011;19909;43.644;-79.438;2022-07-23T11:47:04;0.43;;;0.30;;
33579;SDS011;19909;43.644;-79.438;2022-07-23T11:49:35;0.68;;;0.50;;
33579;SDS011;19909;43.644;-79.438;2022-07-23T11:52:38;0.57;;;0.30;;
33579;SDS011;19909;43.644;-79.438;2022-07-23T11:57:32;0.70;;;0.20;;
33579;SDS011;19909;43.644;-79.438;2022-07-23T12:00:05;0.55;;;0.30;;
33579;SDS011;19909;43.644;-79.438;2022-07-23T12:02:37;0.22;;;0.22;;
33579;SDS011;19909;43.644;-79.438;2022-07-23T12:05:05;0.28;;;0.20;;
33579;SDS011;19909;43.644;-79.438;2022-07-23T12:12:41;0.35;;;0.25;;
33579;SDS011;19909;43.644;-79.438;2022-07-23T12:15:10;0.20;;;0.20;;
33579;SDS011;19909;43.644;-79.438;2022-07-23T12:17:38;0.20;;;0.13;;
33579;SDS011;19909;43.644;-79.438;2022-07-23T12:20:07;0.20;;;0.20;;
33579;SDS011;19909;43.644;-79.438;2022-07-23T12:22:40;0.22;;;0.13;;
33579;SDS011;19909;43.644;-79.438;2022-07-23T12:25:13;0.60;;;0.40;;
33579;SDS011;19909;43.644;-79.438;2022-07-23T12:27:41;0.30;;;0.28;;
33579;SDS011;19909;43.644;-79.438;2022-07-23T12:33:07;0.25;;;0.25;;
33579;SDS011;19909;43.644;-79.438;2022-07-23T12:35:37;0.30;;;0.30;;
33579;SDS011;19909;43.644;-79.438;2022-07-23T12:38:14;0.20;;;0.20;;
33579;SDS011;19909;43.644;-79.438;2022-07-23T12:40:44;0.52;;;0.20;;
33579;SDS011;19909;43.644;-79.438;2022-07-23T12:43:33;0.10;;;0.10;;
33579;SDS011;19909;43.644;-79.438;2022-07-23T12:46:08;0.30;;;0.30;;
33579;SDS011;19909;43.644;-79.438;2022-07-23T12:48:50;0.40;;;0.20;;
33579;SDS011;19909;43.644;-79.438;2022-07-23T12:51:25;0.50;;;0.30;;
33579;SDS011;19909;43.644;-79.438;2022-07-23T12:53:58;0.52;;;0.30;;
33579;SDS011;19909;43.644;-79.438;2022-07-23T12:56:34;0.30;;;0.30;;
33579;SDS011;19909;43.644;-79.438;2022-07-23T12:59:11;1.63;;;0.20;;
33579;SDS011;19909;43.644;-79.438;2022-07-23T13:01:42;0.17;;;0.17;;
33579;SDS011;19909;43.644;-79.438;2022-07-23T13:04:20;0.32;;;0.20;;
33579;SDS011;19909;43.644;-79.438;2022-07-23T13:06:57;0.15;;;0.15;;
33579;SDS011;19909;43.644;-79.438;2022-07-23T13:09:28;0.20;;;0.20;;
33579;SDS011;19909;43.644;-79.438;2022-07-23T13:11:56;0.22;;;0.20;;
33579;SDS011;19909;43.644;-79.438;2022-07-23T13:14:24;0.30;;;0.30;;
33579;SDS011;19909;43.644;-79.438;2022-07-23T13:16:51;0.45;;;0.32;;
33579;SDS011;19909;43.644;-79.438;2022-07-23T13:19:18;0.30;;;0.20;;
33579;SDS011;19909;43.644;-79.438;2022-07-23T13:21:47;0.20;;;0.20;;
33579;SDS011;19909;43.644;-79.438;2022-07-23T13:24:14;0.20;;;0.10;;
33579;SDS011;19909;43.644;-79.438;2022-07-23T13:26:40;0.10;;;0.10;;
33579;SDS011;19909;43.644;-79.438;2022-07-23T13:29:07;0.17;;;0.17;;
33579;SDS011;19909;43.644;-79.438;2022-07-23T13:31:34;0.20;;;0.20;;
33579;SDS011;19909;43.644;-79.438;2022-07-23T13:34:02;0.20;;;0.20;;
33579;SDS011;19909;43.644;-79.438;2022-07-23T13:36:29;0.73;;;0.20;;
33579;SDS011;19909;43.644;-79.438;2022-07-23T13:38:55;0.20;;;0.10;;
33579;SDS011;19909;43.644;-79.438;2022-07-23T13:41:21;0.17;;;0.10;;
33579;SDS011;19909;43.644;-79.438;2022-07-23T13:43:48;0.30;;;0.13;;
33579;SDS011;19909;43.644;-79.438;2022-07-23T13:46:15;0.22;;;0.20;;
33579;SDS011;19909;43.644;-79.438;2022-07-23T13:48:41;0.20;;;0.20;;
33579;SDS011;19909;43.644;-79.438;2022-07-23T13:51:08;0.43;;;0.30;;
33579;SDS011;19909;43.644;-79.438;2022-07-23T13:53:34;0.15;;;0.15;;
33579;SDS011;19909;43.644;-79.438;2022-07-23T13:56:00;0.20;;;0.20;;
33579;SDS011;19909;43.644;-79.438;2022-07-23T13:58:26;0.30;;;0.20;;
33579;SDS011;19909;43.644;-79.438;2022-07-23T14:00:52;0.10;;;0.10;;
33579;SDS011;19909;43.644;-79.438;2022-07-23T14:03:20;0.20;;;0.20;;
33579;SDS011;19909;43.644;-79.438;2022-07-23T14:05:50;0.10;;;0.10;;
33579;SDS011;19909;43.644;-79.438;2022-07-23T14:08:17;0.20;;;0.20;;
33579;SDS011;19909;43.644;-79.438;2022-07-23T14:10:44;0.10;;;0.10;;
33579;SDS011;19909;43.644;-79.438;2022-07-23T14:13:10;0.35;;;0.20;;
33579;SDS011;19909;43.644;-79.438;2022-07-23T14:15:36;0.32;;;0.15;;
33579;SDS011;19909;43.644;-79.438;2022-07-23T14:18:05;0.17;;;0.17;;
33579;SDS011;19909;43.644;-79.438;2022-07-23T14:20:32;0.10;;;0.10;;
33579;SDS011;19909;43.644;-79.438;2022-07-23T14:22:59;0.40;;;0.30;;
33579;SDS011;19909;43.644;-79.438;2022-07-23T14:25:25;0.20;;;0.20;;
33579;SDS011;19909;43.644;-79.438;2022-07-23T14:27:52;0.20;;;0.20;;
33579;SDS011;19909;43.644;-79.438;2022-07-23T14:30:18;0.22;;;0.20;;
33579;SDS011;19909;43.644;-79.438;2022-07-23T14:32:45;0.30;;;0.15;;
33579;SDS011;19909;43.644;-79.438;2022-07-23T14:35:11;0.10;;;0.10;;
33579;SDS011;19909;43.644;-79.438;2022-07-23T14:37:38;0.10;;;0.10;;
33579;SDS011;19909;43.644;-79.438;2022-07-23T14:40:05;0.10;;;0.10;;
33579;SDS011;19909;43.644;-79.438;2022-07-23T14:42:32;0.10;;;0.10;;
33579;SDS011;19909;43.644;-79.438;2022-07-23T14:44:59;0.10;;;0.10;;
33579;SDS011;19909;43.644;-79.438;2022-07-23T14:47:25;0.30;;;0.10;;
33579;SDS011;19909;43.644;-79.438;2022-07-23T14:49:51;0.10;;;0.10;;
33579;SDS011;19909;43.644;-79.438;2022-07-23T14:52:17;0.13;;;0.10;;
33579;SDS011;19909;43.644;-79.438;2022-07-23T14:54:43;0.10;;;0.10;;
33579;SDS011;19909;43.644;-79.438;2022-07-23T14:57:10;0.22;;;0.20;;
33579;SDS011;19909;43.644;-79.438;2022-07-23T14:59:36;0.10;;;0.10;;
33579;SDS011;19909;43.644;-79.438;2022-07-23T15:02:02;0.20;;;0.20;;
33579;SDS011;19909;43.644;-79.438;2022-07-23T15:04:28;0.20;;;0.20;;
33579;SDS011;19909;43.644;-79.438;2022-07-23T15:06:54;0.10;;;0.10;;
33579;SDS011;19909;43.644;-79.438;2022-07-23T15:09:20;0.10;;;0.10;;
33579;SDS011;19909;43.644;-79.438;2022-07-23T15:11:47;0.10;;;0.10;;